sensor_id;sensor_type;location;lat;lon;timestamp;P1;durP1;ratioP1;P2;durP2;ratioP2
80776;SDS011;70169;51.262;6.336;2024-01-16T00:00:57;10.33;;;6.53;;
80776;SDS011;70169;51.262;6.336;2024-01-16T00:03:13;12.17;;;7.23;;
80776;SDS011;70169;51.262;6.336;2024-01-16T00:05:28;12.03;;;6.20;;
80776;SDS011;70169;51.262;6.336;2024-01-16T00:07:43;9.93;;;5.37;;
80776;SDS011;70169;51.262;6.336;2024-01-16T00:09:58;11.73;;;6.88;;
80776;SDS011;70169;51.262;6.336;2024-01-16T00:12:14;10.87;;;6.00;;
80776;SDS011;70169;51.262;6.336;2024-01-16T00:14:29;9.07;;;6.13;;
80776;SDS011;70169;51.262;6.336;2024-01-16T00:16:45;12.60;;;6.73;;
80776;SDS011;70169;51.262;6.336;2024-01-16T00:19:00;12.18;;;6.85;;
80776;SDS011;70169;51.262;6.336;2024-01-16T00:21:15;10.67;;;6.37;;
80776;SDS011;70169;51.262;6.336;2024-01-16T00:23:30;16.37;;;8.57;;
80776;SDS011;70169;51.262;6.336;2024-01-16T00:25:47;13.35;;;7.80;;
80776;SDS011;70169;51.262;6.336;2024-01-16T00:28:02;13.40;;;8.80;;
80776;SDS011;70169;51.262;6.336;2024-01-16T00:30:18;15.00;;;8.23;;
80776;SDS011;70169;51.262;6.336;2024-01-16T00:32:33;14.63;;;9.43;;
80776;SDS011;70169;51.262;6.336;2024-01-16T00:34:48;18.87;;;9.63;;
80776;SDS011;70169;51.262;6.336;2024-01-16T00:37:03;20.17;;;11.03;;
80776;SDS011;70169;51.262;6.336;2024-01-16T00:39:19;16.57;;;9.83;;
80776;SDS011;70169;51.262;6.336;2024-01-16T00:41:34;15.37;;;10.03;;
80776;SDS011;70169;51.262;6.336;2024-01-16T00:43:49;18.33;;;11.97;;
80776;SDS011;70169;51.262;6.336;2024-01-16T00:46:04;19.10;;;10.57;;
80776;SDS011;70169;51.262;6.336;2024-01-16T00:48:19;15.30;;;10.67;;
80776;SDS011;70169;51.262;6.336;2024-01-16T00:50:35;17.10;;;10.10;;
80776;SDS011;70169;51.262;6.336;2024-01-16T00:52:51;16.27;;;10.27;;
80776;SDS011;70169;51.262;6.336;2024-01-16T00:55:06;19.00;;;10.83;;
80776;SDS011;70169;51.262;6.336;2024-01-16T00:57:21;18.50;;;9.73;;
80776;SDS011;70169;51.262;6.336;2024-01-16T00:59:37;14.85;;;9.45;;
80776;SDS011;70169;51.262;6.336;2024-01-16T01:01:52;15.35;;;9.57;;
80776;SDS011;70169;51.262;6.336;2024-01-16T01:04:07;15.52;;;10.45;;
80776;SDS011;70169;51.262;6.336;2024-01-16T01:06:23;14.87;;;8.93;;
80776;SDS011;70169;51.262;6.336;2024-01-16T01:08:38;15.67;;;8.60;;
80776;SDS011;70169;51.262;6.336;2024-01-16T01:10:53;12.90;;;7.97;;
80776;SDS011;70169;51.262;6.336;2024-01-16T01:13:08;13.10;;;9.00;;
80776;SDS011;70169;51.262;6.336;2024-01-16T01:15:24;13.83;;;8.17;;
80776;SDS011;70169;51.262;6.336;2024-01-16T01:17:39;12.90;;;8.00;;
80776;SDS011;70169;51.262;6.336;2024-01-16T01:19:55;14.98;;;8.00;;
80776;SDS011;70169;51.262;6.336;2024-01-16T01:22:10;15.23;;;8.93;;
80776;SDS011;70169;51.262;6.336;2024-01-16T01:24:25;16.23;;;8.90;;
80776;SDS011;70169;51.262;6.336;2024-01-16T01:26:43;12.20;;;8.47;;
80776;SDS011;70169;51.262;6.336;2024-01-16T01:28:59;13.80;;;8.27;;
80776;SDS011;70169;51.262;6.336;2024-01-16T01:31:14;13.83;;;9.07;;
80776;SDS011;70169;51.262;6.336;2024-01-16T01:33:29;13.93;;;8.70;;
80776;SDS011;70169;51.262;6.336;2024-01-16T01:35:44;15.50;;;8.97;;
80776;SDS011;70169;51.262;6.336;2024-01-16T01:37:59;16.27;;;9.67;;
80776;SDS011;70169;51.262;6.336;2024-01-16T01:40:15;14.43;;;9.10;;
80776;SDS011;70169;51.262;6.336;2024-01-16T01:42:30;16.20;;;8.85;;
80776;SDS011;70169;51.262;6.336;2024-01-16T01:44:45;16.43;;;9.23;;
80776;SDS011;70169;51.262;6.336;2024-01-16T01:47:01;15.70;;;8.97;;
80776;SDS011;70169;51.262;6.336;2024-01-16T01:49:16;18.25;;;10.23;;
80776;SDS011;70169;51.262;6.336;2024-01-16T01:51:32;15.40;;;8.93;;
80776;SDS011;70169;51.262;6.336;2024-01-16T01:53:49;16.40;;;10.48;;
80776;SDS011;70169;51.262;6.336;2024-01-16T01:56:07;15.07;;;9.38;;
80776;SDS011;70169;51.262;6.336;2024-01-16T01:58:22;14.63;;;9.27;;
80776;SDS011;70169;51.262;6.336;2024-01-16T02:00:38;19.40;;;9.88;;
80776;SDS011;70169;51.262;6.336;2024-01-16T02:02:53;17.93;;;10.13;;
80776;SDS011;70169;51.262;6.336;2024-01-16T02:05:08;19.67;;;11.43;;
80776;SDS011;70169;51.262;6.336;2024-01-16T02:07:24;15.65;;;9.85;;
80776;SDS011;70169;51.262;6.336;2024-01-16T02:09:40;18.08;;;10.13;;
80776;SDS011;70169;51.262;6.336;2024-01-16T02:11:55;18.20;;;10.25;;
80776;SDS011;70169;51.262;6.336;2024-01-16T02:14:10;17.50;;;9.60;;
80776;SDS011;70169;51.262;6.336;2024-01-16T02:16:25;17.37;;;10.03;;
80776;SDS011;70169;51.262;6.336;2024-01-16T02:18:40;19.40;;;11.17;;
80776;SDS011;70169;51.262;6.336;2024-01-16T02:20:57;20.67;;;9.77;;
80776;SDS011;70169;51.262;6.336;2024-01-16T02:23:14;16.45;;;9.95;;
80776;SDS011;70169;51.262;6.336;2024-01-16T02:25:30;14.45;;;9.20;;
80776;SDS011;70169;51.262;6.336;2024-01-16T02:27:45;16.15;;;8.80;;
80776;SDS011;70169;51.262;6.336;2024-01-16T02:30:00;16.00;;;10.17;;
80776;SDS011;70169;51.262;6.336;2024-01-16T02:32:15;15.80;;;9.47;;
80776;SDS011;70169;51.262;6.336;2024-01-16T02:34:31;16.60;;;9.87;;
80776;SDS011;70169;51.262;6.336;2024-01-16T02:36:46;17.07;;;9.83;;
80776;SDS011;70169;51.262;6.336;2024-01-16T02:39:01;19.17;;;9.50;;
80776;SDS011;70169;51.262;6.336;2024-01-16T02:41:16;15.70;;;9.57;;
80776;SDS011;70169;51.262;6.336;2024-01-16T02:43:32;14.82;;;8.90;;
80776;SDS011;70169;51.262;6.336;2024-01-16T02:45:47;20.55;;;9.30;;
80776;SDS011;70169;51.262;6.336;2024-01-16T02:48:02;16.57;;;8.60;;
80776;SDS011;70169;51.262;6.336;2024-01-16T02:50:18;17.77;;;10.27;;
80776;SDS011;70169;51.262;6.336;2024-01-16T02:52:35;16.27;;;9.80;;
80776;SDS011;70169;51.262;6.336;2024-01-16T02:54:50;16.35;;;9.35;;
80776;SDS011;70169;51.262;6.336;2024-01-16T02:57:05;18.57;;;8.43;;
80776;SDS011;70169;51.262;6.336;2024-01-16T02:59:21;13.53;;;8.43;;
80776;SDS011;70169;51.262;6.336;2024-01-16T03:01:36;12.50;;;8.50;;
80776;SDS011;70169;51.262;6.336;2024-01-16T03:03:51;14.87;;;9.00;;
80776;SDS011;70169;51.262;6.336;2024-01-16T03:06:06;13.20;;;7.87;;
80776;SDS011;70169;51.262;6.336;2024-01-16T03:08:21;13.87;;;8.10;;
80776;SDS011;70169;51.262;6.336;2024-01-16T03:10:37;17.87;;;7.63;;
80776;SDS011;70169;51.262;6.336;2024-01-16T03:12:52;14.10;;;7.87;;
80776;SDS011;70169;51.262;6.336;2024-01-16T03:15:07;12.55;;;8.15;;
80776;SDS011;70169;51.262;6.336;2024-01-16T03:17:23;16.93;;;6.90;;
80776;SDS011;70169;51.262;6.336;2024-01-16T03:19:38;13.50;;;7.97;;
80776;SDS011;70169;51.262;6.336;2024-01-16T03:21:53;10.80;;;6.60;;
80776;SDS011;70169;51.262;6.336;2024-01-16T03:24:08;12.50;;;7.50;;
80776;SDS011;70169;51.262;6.336;2024-01-16T03:26:25;10.02;;;6.00;;
80776;SDS011;70169;51.262;6.336;2024-01-16T03:28:41;12.68;;;7.35;;
80776;SDS011;70169;51.262;6.336;2024-01-16T03:30:56;11.68;;;5.82;;
80776;SDS011;70169;51.262;6.336;2024-01-16T03:33:12;10.27;;;6.82;;
80776;SDS011;70169;51.262;6.336;2024-01-16T03:35:27;11.27;;;5.73;;
80776;SDS011;70169;51.262;6.336;2024-01-16T03:37:42;9.03;;;4.80;;
80776;SDS011;70169;51.262;6.336;2024-01-16T03:39:57;7.73;;;4.33;;
80776;SDS011;70169;51.262;6.336;2024-01-16T03:42:12;9.80;;;4.67;;
80776;SDS011;70169;51.262;6.336;2024-01-16T03:44:28;7.93;;;4.50;;
80776;SDS011;70169;51.262;6.336;2024-01-16T03:46:43;9.87;;;4.90;;
80776;SDS011;70169;51.262;6.336;2024-01-16T03:48:58;7.60;;;5.00;;
80776;SDS011;70169;51.262;6.336;2024-01-16T03:51:13;9.67;;;4.50;;
80776;SDS011;70169;51.262;6.336;2024-01-16T03:53:30;8.30;;;4.70;;
80776;SDS011;70169;51.262;6.336;2024-01-16T03:55:46;9.00;;;4.17;;
80776;SDS011;70169;51.262;6.336;2024-01-16T03:58:02;8.30;;;5.70;;
80776;SDS011;70169;51.262;6.336;2024-01-16T04:00:17;10.47;;;5.20;;
80776;SDS011;70169;51.262;6.336;2024-01-16T04:02:32;8.63;;;5.43;;
80776;SDS011;70169;51.262;6.336;2024-01-16T04:04:47;8.63;;;5.23;;
80776;SDS011;70169;51.262;6.336;2024-01-16T04:07:02;9.83;;;5.50;;
80776;SDS011;70169;51.262;6.336;2024-01-16T04:09:18;13.30;;;7.23;;
80776;SDS011;70169;51.262;6.336;2024-01-16T04:11:33;12.65;;;7.13;;
80776;SDS011;70169;51.262;6.336;2024-01-16T04:13:49;11.57;;;6.63;;
80776;SDS011;70169;51.262;6.336;2024-01-16T04:16:04;12.07;;;6.97;;
80776;SDS011;70169;51.262;6.336;2024-01-16T04:18:20;15.90;;;7.17;;
80776;SDS011;70169;51.262;6.336;2024-01-16T04:20:35;13.00;;;8.10;;
80776;SDS011;70169;51.262;6.336;2024-01-16T04:22:50;13.55;;;8.05;;
80776;SDS011;70169;51.262;6.336;2024-01-16T04:25:06;12.80;;;7.97;;
80776;SDS011;70169;51.262;6.336;2024-01-16T04:27:21;13.30;;;8.57;;
80776;SDS011;70169;51.262;6.336;2024-01-16T04:29:36;14.97;;;8.77;;
80776;SDS011;70169;51.262;6.336;2024-01-16T04:31:52;17.92;;;9.20;;
80776;SDS011;70169;51.262;6.336;2024-01-16T04:34:07;15.03;;;7.60;;
80776;SDS011;70169;51.262;6.336;2024-01-16T04:36:22;14.97;;;7.37;;
80776;SDS011;70169;51.262;6.336;2024-01-16T04:38:37;16.17;;;9.13;;
80776;SDS011;70169;51.262;6.336;2024-01-16T04:40:52;14.60;;;8.20;;
80776;SDS011;70169;51.262;6.336;2024-01-16T04:43:07;14.23;;;8.07;;
80776;SDS011;70169;51.262;6.336;2024-01-16T04:45:23;13.03;;;7.43;;
80776;SDS011;70169;51.262;6.336;2024-01-16T04:47:38;13.73;;;8.57;;
80776;SDS011;70169;51.262;6.336;2024-01-16T04:49:53;12.10;;;7.63;;
80776;SDS011;70169;51.262;6.336;2024-01-16T04:52:08;17.30;;;8.57;;
80776;SDS011;70169;51.262;6.336;2024-01-16T04:54:23;16.60;;;8.70;;
80776;SDS011;70169;51.262;6.336;2024-01-16T04:56:39;18.33;;;7.87;;
80776;SDS011;70169;51.262;6.336;2024-01-16T04:58:54;16.43;;;9.23;;
80776;SDS011;70169;51.262;6.336;2024-01-16T05:01:09;14.20;;;7.70;;
80776;SDS011;70169;51.262;6.336;2024-01-16T05:03:24;13.23;;;7.97;;
80776;SDS011;70169;51.262;6.336;2024-01-16T05:05:39;15.30;;;8.87;;
80776;SDS011;70169;51.262;6.336;2024-01-16T05:07:54;16.03;;;9.67;;
80776;SDS011;70169;51.262;6.336;2024-01-16T05:10:10;13.17;;;9.50;;
80776;SDS011;70169;51.262;6.336;2024-01-16T05:14:42;15.68;;;8.40;;
80776;SDS011;70169;51.262;6.336;2024-01-16T05:16:57;19.33;;;8.60;;
80776;SDS011;70169;51.262;6.336;2024-01-16T05:19:13;14.90;;;7.80;;
80776;SDS011;70169;51.262;6.336;2024-01-16T05:21:28;15.60;;;7.63;;
80776;SDS011;70169;51.262;6.336;2024-01-16T05:23:43;16.50;;;9.00;;
80776;SDS011;70169;51.262;6.336;2024-01-16T05:25:58;13.47;;;7.40;;
80776;SDS011;70169;51.262;6.336;2024-01-16T05:28:13;12.07;;;6.90;;
80776;SDS011;70169;51.262;6.336;2024-01-16T05:30:29;10.97;;;7.73;;
80776;SDS011;70169;51.262;6.336;2024-01-16T05:32:44;12.70;;;6.57;;
80776;SDS011;70169;51.262;6.336;2024-01-16T05:34:59;9.93;;;5.65;;
80776;SDS011;70169;51.262;6.336;2024-01-16T05:37:14;9.07;;;5.60;;
80776;SDS011;70169;51.262;6.336;2024-01-16T05:39:30;11.70;;;5.80;;
80776;SDS011;70169;51.262;6.336;2024-01-16T05:41:45;9.40;;;4.77;;
80776;SDS011;70169;51.262;6.336;2024-01-16T05:44:00;11.17;;;5.43;;
80776;SDS011;70169;51.262;6.336;2024-01-16T05:46:18;10.30;;;5.30;;
80776;SDS011;70169;51.262;6.336;2024-01-16T05:48:33;11.00;;;5.38;;
80776;SDS011;70169;51.262;6.336;2024-01-16T05:50:49;13.63;;;6.03;;
80776;SDS011;70169;51.262;6.336;2024-01-16T05:53:04;10.83;;;4.23;;
80776;SDS011;70169;51.262;6.336;2024-01-16T05:55:19;9.40;;;4.67;;
80776;SDS011;70169;51.262;6.336;2024-01-16T05:57:36;11.00;;;4.78;;
80776;SDS011;70169;51.262;6.336;2024-01-16T05:59:52;13.32;;;5.10;;
80776;SDS011;70169;51.262;6.336;2024-01-16T06:02:07;9.70;;;4.80;;
80776;SDS011;70169;51.262;6.336;2024-01-16T06:04:22;13.83;;;5.63;;
80776;SDS011;70169;51.262;6.336;2024-01-16T06:06:38;11.87;;;5.33;;
80776;SDS011;70169;51.262;6.336;2024-01-16T06:08:54;7.63;;;4.60;;
80776;SDS011;70169;51.262;6.336;2024-01-16T06:11:09;11.00;;;4.33;;
80776;SDS011;70169;51.262;6.336;2024-01-16T06:13:25;9.98;;;4.43;;
80776;SDS011;70169;51.262;6.336;2024-01-16T06:15:40;7.27;;;3.63;;
80776;SDS011;70169;51.262;6.336;2024-01-16T06:17:56;10.57;;;3.90;;
80776;SDS011;70169;51.262;6.336;2024-01-16T06:20:11;9.03;;;3.87;;
80776;SDS011;70169;51.262;6.336;2024-01-16T06:22:26;12.73;;;5.20;;
80776;SDS011;70169;51.262;6.336;2024-01-16T06:24:42;8.55;;;3.95;;
80776;SDS011;70169;51.262;6.336;2024-01-16T06:26:57;11.45;;;4.72;;
80776;SDS011;70169;51.262;6.336;2024-01-16T06:29:13;10.38;;;4.45;;
80776;SDS011;70169;51.262;6.336;2024-01-16T06:31:28;13.60;;;4.30;;
80776;SDS011;70169;51.262;6.336;2024-01-16T06:33:44;14.45;;;4.97;;
80776;SDS011;70169;51.262;6.336;2024-01-16T06:35:59;12.68;;;6.70;;
80776;SDS011;70169;51.262;6.336;2024-01-16T06:38:14;14.43;;;5.20;;
80776;SDS011;70169;51.262;6.336;2024-01-16T06:40:29;19.67;;;10.43;;
80776;SDS011;70169;51.262;6.336;2024-01-16T06:42:44;46.27;;;21.57;;
80776;SDS011;70169;51.262;6.336;2024-01-16T06:45:00;44.00;;;17.47;;
80776;SDS011;70169;51.262;6.336;2024-01-16T06:47:15;52.03;;;20.43;;
80776;SDS011;70169;51.262;6.336;2024-01-16T06:49:30;39.47;;;18.20;;
80776;SDS011;70169;51.262;6.336;2024-01-16T06:51:45;17.30;;;8.00;;
80776;SDS011;70169;51.262;6.336;2024-01-16T06:54:00;17.47;;;11.00;;
80776;SDS011;70169;51.262;6.336;2024-01-16T06:56:15;9.07;;;5.33;;
80776;SDS011;70169;51.262;6.336;2024-01-16T06:58:31;11.87;;;7.13;;
80776;SDS011;70169;51.262;6.336;2024-01-16T07:00:46;16.27;;;9.83;;
80776;SDS011;70169;51.262;6.336;2024-01-16T07:03:01;13.85;;;7.00;;
80776;SDS011;70169;51.262;6.336;2024-01-16T07:05:18;36.97;;;18.58;;
80776;SDS011;70169;51.262;6.336;2024-01-16T07:07:33;16.83;;;9.27;;
80776;SDS011;70169;51.262;6.336;2024-01-16T07:09:48;14.07;;;4.90;;
80776;SDS011;70169;51.262;6.336;2024-01-16T07:12:03;9.87;;;4.17;;
80776;SDS011;70169;51.262;6.336;2024-01-16T07:14:19;9.25;;;4.20;;
80776;SDS011;70169;51.262;6.336;2024-01-16T07:16:34;18.25;;;8.07;;
80776;SDS011;70169;51.262;6.336;2024-01-16T07:18:49;10.60;;;4.00;;
80776;SDS011;70169;51.262;6.336;2024-01-16T07:21:15;21.73;;;11.65;;
80776;SDS011;70169;51.262;6.336;2024-01-16T07:23:30;21.35;;;8.80;;
80776;SDS011;70169;51.262;6.336;2024-01-16T07:25:46;13.40;;;5.23;;
80776;SDS011;70169;51.262;6.336;2024-01-16T07:28:01;15.00;;;4.57;;
80776;SDS011;70169;51.262;6.336;2024-01-16T07:30:16;12.03;;;5.07;;
80776;SDS011;70169;51.262;6.336;2024-01-16T07:32:31;9.07;;;3.77;;
80776;SDS011;70169;51.262;6.336;2024-01-16T07:34:47;10.35;;;3.35;;
80776;SDS011;70169;51.262;6.336;2024-01-16T07:37:02;8.40;;;3.67;;
80776;SDS011;70169;51.262;6.336;2024-01-16T07:39:17;9.52;;;3.92;;
80776;SDS011;70169;51.262;6.336;2024-01-16T07:41:33;10.43;;;3.50;;
80776;SDS011;70169;51.262;6.336;2024-01-16T07:43:48;10.93;;;3.13;;
80776;SDS011;70169;51.262;6.336;2024-01-16T07:46:03;8.30;;;3.60;;
80776;SDS011;70169;51.262;6.336;2024-01-16T07:48:18;7.13;;;3.27;;
80776;SDS011;70169;51.262;6.336;2024-01-16T07:50:33;8.83;;;3.67;;
80776;SDS011;70169;51.262;6.336;2024-01-16T07:52:49;12.13;;;4.00;;
80776;SDS011;70169;51.262;6.336;2024-01-16T07:55:04;6.63;;;3.97;;
80776;SDS011;70169;51.262;6.336;2024-01-16T07:57:19;9.87;;;3.87;;
80776;SDS011;70169;51.262;6.336;2024-01-16T07:59:34;9.00;;;3.50;;
80776;SDS011;70169;51.262;6.336;2024-01-16T08:01:49;8.20;;;3.20;;
80776;SDS011;70169;51.262;6.336;2024-01-16T08:04:04;9.77;;;3.60;;
80776;SDS011;70169;51.262;6.336;2024-01-16T08:06:20;7.83;;;3.10;;
80776;SDS011;70169;51.262;6.336;2024-01-16T08:08:35;7.70;;;3.30;;
80776;SDS011;70169;51.262;6.336;2024-01-16T08:10:50;10.03;;;3.53;;
80776;SDS011;70169;51.262;6.336;2024-01-16T08:13:05;13.83;;;4.07;;
80776;SDS011;70169;51.262;6.336;2024-01-16T08:15:21;10.77;;;3.67;;
80776;SDS011;70169;51.262;6.336;2024-01-16T08:17:36;12.57;;;4.03;;
80776;SDS011;70169;51.262;6.336;2024-01-16T08:19:52;8.33;;;3.53;;
80776;SDS011;70169;51.262;6.336;2024-01-16T08:22:07;10.07;;;4.20;;
80776;SDS011;70169;51.262;6.336;2024-01-16T08:24:23;11.57;;;3.80;;
80776;SDS011;70169;51.262;6.336;2024-01-16T08:26:39;11.77;;;3.65;;
80776;SDS011;70169;51.262;6.336;2024-01-16T08:28:54;9.67;;;4.87;;
80776;SDS011;70169;51.262;6.336;2024-01-16T08:31:09;8.63;;;4.40;;
80776;SDS011;70169;51.262;6.336;2024-01-16T08:33:24;10.67;;;4.73;;
80776;SDS011;70169;51.262;6.336;2024-01-16T08:35:40;9.47;;;4.23;;
80776;SDS011;70169;51.262;6.336;2024-01-16T08:37:55;16.77;;;8.27;;
80776;SDS011;70169;51.262;6.336;2024-01-16T08:40:10;12.73;;;5.40;;
80776;SDS011;70169;51.262;6.336;2024-01-16T08:42:26;11.00;;;4.65;;
80776;SDS011;70169;51.262;6.336;2024-01-16T08:44:41;12.20;;;4.93;;
80776;SDS011;70169;51.262;6.336;2024-01-16T08:46:57;9.33;;;4.37;;
80776;SDS011;70169;51.262;6.336;2024-01-16T08:49:14;12.13;;;5.10;;
80776;SDS011;70169;51.262;6.336;2024-01-16T08:51:29;10.23;;;4.07;;
80776;SDS011;70169;51.262;6.336;2024-01-16T08:53:44;8.67;;;4.20;;
80776;SDS011;70169;51.262;6.336;2024-01-16T08:55:59;10.17;;;4.23;;
80776;SDS011;70169;51.262;6.336;2024-01-16T08:58:15;12.83;;;4.17;;
80776;SDS011;70169;51.262;6.336;2024-01-16T09:00:30;9.40;;;4.20;;
80776;SDS011;70169;51.262;6.336;2024-01-16T09:02:45;10.63;;;3.97;;
80776;SDS011;70169;51.262;6.336;2024-01-16T09:05:00;7.70;;;3.95;;
80776;SDS011;70169;51.262;6.336;2024-01-16T09:07:16;9.97;;;4.33;;
80776;SDS011;70169;51.262;6.336;2024-01-16T09:09:31;9.73;;;4.10;;
80776;SDS011;70169;51.262;6.336;2024-01-16T09:11:47;8.23;;;4.07;;
80776;SDS011;70169;51.262;6.336;2024-01-16T09:14:02;9.47;;;4.33;;
80776;SDS011;70169;51.262;6.336;2024-01-16T09:16:17;10.00;;;4.50;;
80776;SDS011;70169;51.262;6.336;2024-01-16T09:18:32;8.90;;;4.40;;
80776;SDS011;70169;51.262;6.336;2024-01-16T09:20:48;12.98;;;4.88;;
80776;SDS011;70169;51.262;6.336;2024-01-16T09:23:04;9.43;;;4.07;;
80776;SDS011;70169;51.262;6.336;2024-01-16T09:25:19;8.60;;;4.00;;
80776;SDS011;70169;51.262;6.336;2024-01-16T09:27:35;11.27;;;4.82;;
80776;SDS011;70169;51.262;6.336;2024-01-16T09:29:50;10.73;;;4.23;;
80776;SDS011;70169;51.262;6.336;2024-01-16T09:32:05;9.27;;;4.63;;
80776;SDS011;70169;51.262;6.336;2024-01-16T09:34:20;14.37;;;4.93;;
80776;SDS011;70169;51.262;6.336;2024-01-16T09:36:35;8.33;;;4.53;;
80776;SDS011;70169;51.262;6.336;2024-01-16T09:38:51;10.88;;;4.35;;
80776;SDS011;70169;51.262;6.336;2024-01-16T09:41:06;10.00;;;3.77;;
80776;SDS011;70169;51.262;6.336;2024-01-16T09:43:22;9.52;;;4.22;;
80776;SDS011;70169;51.262;6.336;2024-01-16T09:45:38;12.00;;;5.80;;
80776;SDS011;70169;51.262;6.336;2024-01-16T09:47:53;10.38;;;5.15;;
80776;SDS011;70169;51.262;6.336;2024-01-16T09:50:09;7.17;;;4.00;;
80776;SDS011;70169;51.262;6.336;2024-01-16T09:52:25;9.93;;;5.72;;
80776;SDS011;70169;51.262;6.336;2024-01-16T09:54:41;9.10;;;4.30;;
80776;SDS011;70169;51.262;6.336;2024-01-16T09:56:58;9.00;;;5.05;;
80776;SDS011;70169;51.262;6.336;2024-01-16T09:59:15;7.38;;;4.18;;
80776;SDS011;70169;51.262;6.336;2024-01-16T10:01:31;11.60;;;6.75;;
80776;SDS011;70169;51.262;6.336;2024-01-16T10:03:48;16.83;;;7.18;;
80776;SDS011;70169;51.262;6.336;2024-01-16T10:06:06;9.07;;;4.53;;
80776;SDS011;70169;51.262;6.336;2024-01-16T10:08:21;10.20;;;3.92;;
80776;SDS011;70169;51.262;6.336;2024-01-16T10:10:37;9.43;;;4.33;;
80776;SDS011;70169;51.262;6.336;2024-01-16T10:12:52;10.93;;;4.20;;
80776;SDS011;70169;51.262;6.336;2024-01-16T10:15:08;9.15;;;4.75;;
80776;SDS011;70169;51.262;6.336;2024-01-16T10:17:35;13.32;;;4.30;;
80776;SDS011;70169;51.262;6.336;2024-01-16T10:19:51;10.05;;;5.75;;
80776;SDS011;70169;51.262;6.336;2024-01-16T10:22:07;9.50;;;3.92;;
80776;SDS011;70169;51.262;6.336;2024-01-16T10:24:22;10.97;;;4.43;;
80776;SDS011;70169;51.262;6.336;2024-01-16T10:26:37;9.73;;;4.90;;
80776;SDS011;70169;51.262;6.336;2024-01-16T10:28:53;7.97;;;3.63;;
80776;SDS011;70169;51.262;6.336;2024-01-16T10:31:17;8.80;;;4.28;;
80776;SDS011;70169;51.262;6.336;2024-01-16T10:33:33;8.87;;;4.07;;
80776;SDS011;70169;51.262;6.336;2024-01-16T10:35:48;8.23;;;4.13;;
80776;SDS011;70169;51.262;6.336;2024-01-16T10:38:03;10.07;;;4.40;;
80776;SDS011;70169;51.262;6.336;2024-01-16T10:42:34;9.33;;;4.33;;
80776;SDS011;70169;51.262;6.336;2024-01-16T10:44:52;11.80;;;4.30;;
80776;SDS011;70169;51.262;6.336;2024-01-16T10:47:10;15.05;;;4.78;;
80776;SDS011;70169;51.262;6.336;2024-01-16T10:49:26;11.20;;;4.22;;
80776;SDS011;70169;51.262;6.336;2024-01-16T10:51:43;11.80;;;4.20;;
80776;SDS011;70169;51.262;6.336;2024-01-16T10:54:04;11.30;;;4.90;;
80776;SDS011;70169;51.262;6.336;2024-01-16T10:56:20;12.05;;;4.53;;
80776;SDS011;70169;51.262;6.336;2024-01-16T10:58:36;10.73;;;4.80;;
80776;SDS011;70169;51.262;6.336;2024-01-16T11:00:53;9.05;;;4.55;;
80776;SDS011;70169;51.262;6.336;2024-01-16T11:03:09;10.60;;;4.70;;
80776;SDS011;70169;51.262;6.336;2024-01-16T11:05:26;7.50;;;4.35;;
80776;SDS011;70169;51.262;6.336;2024-01-16T11:07:45;11.48;;;4.80;;
80776;SDS011;70169;51.262;6.336;2024-01-16T11:10:01;8.90;;;4.88;;
80776;SDS011;70169;51.262;6.336;2024-01-16T11:12:17;13.95;;;4.78;;
80776;SDS011;70169;51.262;6.336;2024-01-16T11:14:34;11.45;;;5.15;;
80776;SDS011;70169;51.262;6.336;2024-01-16T11:16:50;7.57;;;4.25;;
80776;SDS011;70169;51.262;6.336;2024-01-16T11:19:07;10.30;;;4.22;;
80776;SDS011;70169;51.262;6.336;2024-01-16T11:21:23;8.52;;;4.15;;
80776;SDS011;70169;51.262;6.336;2024-01-16T11:23:39;9.27;;;5.30;;
80776;SDS011;70169;51.262;6.336;2024-01-16T11:25:54;10.82;;;3.80;;
80776;SDS011;70169;51.262;6.336;2024-01-16T11:28:10;9.00;;;3.97;;
80776;SDS011;70169;51.262;6.336;2024-01-16T11:30:30;11.63;;;4.25;;
80776;SDS011;70169;51.262;6.336;2024-01-16T11:32:46;12.23;;;5.38;;
80776;SDS011;70169;51.262;6.336;2024-01-16T11:35:02;12.50;;;4.50;;
80776;SDS011;70169;51.262;6.336;2024-01-16T11:37:24;8.07;;;3.90;;
80776;SDS011;70169;51.262;6.336;2024-01-16T11:39:40;15.15;;;4.80;;
80776;SDS011;70169;51.262;6.336;2024-01-16T11:41:58;10.73;;;5.05;;
80776;SDS011;70169;51.262;6.336;2024-01-16T11:44:35;10.48;;;5.10;;
80776;SDS011;70169;51.262;6.336;2024-01-16T11:47:01;17.20;;;6.35;;
80776;SDS011;70169;51.262;6.336;2024-01-16T11:49:20;8.68;;;4.32;;
80776;SDS011;70169;51.262;6.336;2024-01-16T11:51:35;18.92;;;4.20;;
80776;SDS011;70169;51.262;6.336;2024-01-16T11:53:56;11.65;;;5.82;;
80776;SDS011;70169;51.262;6.336;2024-01-16T11:56:13;11.67;;;5.23;;
80776;SDS011;70169;51.262;6.336;2024-01-16T12:01:05;11.05;;;5.10;;
80776;SDS011;70169;51.262;6.336;2024-01-16T12:03:21;7.47;;;4.43;;
80776;SDS011;70169;51.262;6.336;2024-01-16T12:05:37;15.93;;;7.32;;
80776;SDS011;70169;51.262;6.336;2024-01-16T12:07:52;11.70;;;4.07;;
80776;SDS011;70169;51.262;6.336;2024-01-16T12:10:09;12.13;;;4.00;;
80776;SDS011;70169;51.262;6.336;2024-01-16T12:12:24;10.80;;;4.38;;
80776;SDS011;70169;51.262;6.336;2024-01-16T12:14:39;8.80;;;3.97;;
80776;SDS011;70169;51.262;6.336;2024-01-16T12:17:10;9.73;;;4.50;;
80776;SDS011;70169;51.262;6.336;2024-01-16T12:19:27;8.63;;;4.10;;
80776;SDS011;70169;51.262;6.336;2024-01-16T12:21:45;13.52;;;4.57;;
80776;SDS011;70169;51.262;6.336;2024-01-16T12:24:00;9.77;;;3.75;;
80776;SDS011;70169;51.262;6.336;2024-01-16T12:26:22;8.32;;;3.30;;
80776;SDS011;70169;51.262;6.336;2024-01-16T12:28:37;6.30;;;3.50;;
80776;SDS011;70169;51.262;6.336;2024-01-16T12:30:53;10.33;;;4.20;;
80776;SDS011;70169;51.262;6.336;2024-01-16T12:33:09;11.50;;;5.37;;
80776;SDS011;70169;51.262;6.336;2024-01-16T12:35:24;9.82;;;4.63;;
80776;SDS011;70169;51.262;6.336;2024-01-16T12:37:39;9.20;;;4.87;;
80776;SDS011;70169;51.262;6.336;2024-01-16T12:39:54;9.90;;;3.87;;
80776;SDS011;70169;51.262;6.336;2024-01-16T12:42:12;10.07;;;5.90;;
80776;SDS011;70169;51.262;6.336;2024-01-16T12:44:28;15.77;;;4.90;;
80776;SDS011;70169;51.262;6.336;2024-01-16T12:46:44;10.68;;;5.07;;
80776;SDS011;70169;51.262;6.336;2024-01-16T12:49:08;8.40;;;3.85;;
80776;SDS011;70169;51.262;6.336;2024-01-16T12:51:26;10.38;;;4.57;;
80776;SDS011;70169;51.262;6.336;2024-01-16T12:53:41;6.77;;;3.80;;
80776;SDS011;70169;51.262;6.336;2024-01-16T12:56:00;6.27;;;3.60;;
80776;SDS011;70169;51.262;6.336;2024-01-16T13:00:31;7.97;;;4.13;;
80776;SDS011;70169;51.262;6.336;2024-01-16T13:02:49;8.30;;;3.57;;
80776;SDS011;70169;51.262;6.336;2024-01-16T13:05:04;8.10;;;3.55;;
80776;SDS011;70169;51.262;6.336;2024-01-16T13:07:20;8.02;;;4.10;;
80776;SDS011;70169;51.262;6.336;2024-01-16T13:09:35;10.50;;;4.38;;
80776;SDS011;70169;51.262;6.336;2024-01-16T13:11:51;7.33;;;4.03;;
80776;SDS011;70169;51.262;6.336;2024-01-16T13:14:07;8.30;;;4.50;;
80776;SDS011;70169;51.262;6.336;2024-01-16T13:16:22;9.40;;;4.63;;
80776;SDS011;70169;51.262;6.336;2024-01-16T13:18:37;9.07;;;4.17;;
80776;SDS011;70169;51.262;6.336;2024-01-16T13:20:53;12.88;;;4.50;;
80776;SDS011;70169;51.262;6.336;2024-01-16T13:23:08;8.30;;;4.10;;
80776;SDS011;70169;51.262;6.336;2024-01-16T13:25:24;11.45;;;4.30;;
80776;SDS011;70169;51.262;6.336;2024-01-16T13:27:39;10.70;;;5.10;;
80776;SDS011;70169;51.262;6.336;2024-01-16T13:29:56;8.05;;;4.57;;
80776;SDS011;70169;51.262;6.336;2024-01-16T13:32:11;8.07;;;4.90;;
80776;SDS011;70169;51.262;6.336;2024-01-16T13:34:26;8.97;;;4.73;;
80776;SDS011;70169;51.262;6.336;2024-01-16T13:36:41;9.93;;;4.57;;
80776;SDS011;70169;51.262;6.336;2024-01-16T13:38:58;7.07;;;4.78;;